createdAt,value
2018-09-18T00:01:10.492Z,98465.40
2018-09-18T00:03:38.721Z,98463.12
2018-09-18T00:06:06.997Z,98466.00
2018-09-18T00:08:35.248Z,98464.86
2018-09-18T00:11:03.732Z,98467.77
2018-09-18T00:13:32.442Z,98472.59
2018-09-18T00:16:01.816Z,98475.47
2018-09-18T00:18:30.082Z,98471.52
2018-09-18T00:20:58.302Z,98475.59
2018-09-18T00:23:26.745Z,98473.95
2018-09-18T00:25:56.079Z,98471.98
2018-09-18T00:28:25.122Z,98467.67
2018-09-18T00:30:53.397Z,98460.44
2018-09-18T00:33:21.988Z,98457.02
2018-09-18T00:35:50.366Z,98458.55
2018-09-18T00:38:19.003Z,98457.91
2018-09-18T00:40:47.258Z,98457.72
2018-09-18T00:43:15.762Z,98456.98
2018-09-18T00:45:44.246Z,98453.59
2018-09-18T00:48:12.465Z,98454.06
2018-09-18T00:50:40.975Z,98456.73
2018-09-18T00:53:09.584Z,98448.11
2018-09-18T00:55:38.125Z,98454.25
2018-09-18T00:58:06.363Z,98446.01
2018-09-18T01:00:34.591Z,98455.14
2018-09-18T01:03:02.900Z,98449.95
2018-09-18T01:05:31.555Z,98446.69
2018-09-18T01:08:00.626Z,98448.41
2018-09-18T01:10:29.029Z,98451.25
2018-09-18T01:12:58.146Z,98446.84
2018-09-18T01:15:26.793Z,98448.67
2018-09-18T01:17:55.646Z,98456.19
2018-09-18T01:20:23.855Z,98455.71
2018-09-18T01:22:52.306Z,98454.06
2018-09-18T01:25:20.422Z,98450.88
2018-09-18T01:27:48.970Z,98442.66
2018-09-18T01:30:17.194Z,98447.38
2018-09-18T01:32:45.724Z,98451.90
2018-09-18T01:35:13.971Z,98449.23
2018-09-18T01:37:42.217Z,98451.75
2018-09-18T01:40:10.474Z,98448.95
2018-09-18T01:42:38.714Z,98450.05
2018-09-18T01:45:07.310Z,98456.27
2018-09-18T01:47:35.815Z,98449.62
2018-09-18T01:50:04.745Z,98450.38
2018-09-18T01:52:33.472Z,98449.62
2018-09-18T01:55:01.752Z,98449.42
2018-09-18T01:57:30.811Z,98446.16
2018-09-18T01:59:59.693Z,98447.30
2018-09-18T02:02:28.057Z,98443.48
2018-09-18T02:04:56.800Z,98447.77
2018-09-18T02:07:25.572Z,98443.12
2018-09-18T02:09:53.802Z,98447.53
2018-09-18T02:12:22.387Z,98442.62
2018-09-18T02:14:51.400Z,98440.77
2018-09-18T02:17:20.335Z,98439.59
2018-09-18T02:19:48.598Z,98441.16
2018-09-18T02:22:16.896Z,98441.86
2018-09-18T02:24:46.867Z,98439.39
2018-09-18T02:27:15.428Z,98441.42
2018-09-18T02:29:44.062Z,98444.28
2018-09-18T02:32:12.308Z,98448.71
2018-09-18T02:34:44.191Z,98442.35
2018-09-18T02:37:12.570Z,98439.64
2018-09-18T02:39:41.124Z,98437.61
2018-09-18T02:42:09.733Z,98440.94
2018-09-18T02:44:37.999Z,98438.48
2018-09-18T02:47:06.575Z,98440.40
2018-09-18T02:49:34.886Z,98437.25
2018-09-18T02:52:03.666Z,98436.34
2018-09-18T02:54:33.877Z,98436.02
2018-09-18T02:57:02.173Z,98439.28
2018-09-18T02:59:30.469Z,98440.50
2018-09-18T03:01:58.972Z,98441.73
2018-09-18T03:04:27.183Z,98442.95
2018-09-18T03:06:55.381Z,98442.68
2018-09-18T03:09:23.938Z,98442.68
2018-09-18T03:11:52.788Z,98442.39
2018-09-18T03:14:21.363Z,98443.71
2018-09-18T03:16:49.776Z,98440.24
2018-09-18T03:19:19.292Z,98453.55
2018-09-18T03:21:47.897Z,98438.59
2018-09-18T03:24:16.173Z,98437.36
2018-09-18T03:26:44.897Z,98441.91
2018-09-18T03:29:13.481Z,98436.73
2018-09-18T03:31:41.706Z,98433.47
2018-09-18T03:34:10.221Z,98432.44
2018-09-18T03:36:39.000Z,98433.02
2018-09-18T03:39:08.029Z,98443.33
2018-09-18T03:41:36.251Z,98445.56
2018-09-18T03:44:04.736Z,98444.44
2018-09-18T03:46:33.010Z,98445.99
2018-09-18T03:49:01.517Z,98444.04
2018-09-18T03:54:04.965Z,98441.45
2018-09-18T03:56:35.479Z,98439.69
2018-09-18T03:59:05.339Z,98443.36
2018-09-18T04:01:35.323Z,98433.59
2018-09-18T04:04:05.526Z,98435.12
2018-09-18T04:06:40.595Z,98437.75
2018-09-18T04:09:10.340Z,98437.52
2018-09-18T04:11:38.848Z,98434.62
2018-09-18T04:14:07.879Z,98433.59
2018-09-18T04:16:36.440Z,98433.99
2018-09-18T04:19:05.281Z,98435.19
2018-09-18T04:21:42.133Z,98427.80
2018-09-18T04:24:10.793Z,98431.21
2018-09-18T04:26:40.661Z,98428.36
2018-09-18T04:29:09.623Z,98428.63
2018-09-18T04:31:40.246Z,98428.53
2018-09-18T04:34:08.785Z,98432.65
2018-09-18T04:36:37.012Z,98437.27
2018-09-18T04:39:10.767Z,98434.31
2018-09-18T04:41:39.098Z,98433.75
2018-09-18T04:44:08.559Z,98435.16
2018-09-18T04:46:36.948Z,98435.66
2018-09-18T04:49:05.225Z,98440.69
2018-09-18T04:51:33.724Z,98441.16
2018-09-18T04:54:01.953Z,98441.38
2018-09-18T04:56:30.571Z,98443.64
2018-09-18T04:58:59.845Z,98447.07
2018-09-18T05:01:28.456Z,98455.30
2018-09-18T05:04:03.696Z,98448.36
2018-09-18T05:06:32.382Z,98454.72
2018-09-18T05:09:00.616Z,98457.66
2018-09-18T05:11:29.613Z,98456.11
2018-09-18T05:13:57.935Z,98455.64
2018-09-18T05:16:26.543Z,98457.03
2018-09-18T05:18:55.736Z,98458.18
2018-09-18T05:21:24.016Z,98465.46
2018-09-18T05:23:52.336Z,98465.98
2018-09-18T05:26:20.580Z,98475.61
2018-09-18T05:28:48.888Z,98467.84
2018-09-18T05:31:17.383Z,98464.93
2018-09-18T05:33:45.902Z,98464.64
2018-09-18T05:36:14.758Z,98464.50
2018-09-18T05:38:43.079Z,98464.12
2018-09-18T05:41:11.641Z,98466.80
2018-09-18T05:43:39.880Z,98464.70
2018-09-18T05:46:08.721Z,98471.59
2018-09-18T05:48:37.185Z,98478.60
2018-09-18T05:51:05.244Z,98472.88
2018-09-18T05:53:33.433Z,98484.87
2018-09-18T05:56:02.410Z,98473.16
2018-09-18T05:58:30.636Z,98480.08
2018-09-18T06:00:58.925Z,98476.53
2018-09-18T06:03:27.562Z,98473.95
2018-09-18T06:05:56.218Z,98481.19
2018-09-18T06:08:24.569Z,98477.64
2018-09-18T06:10:52.814Z,98481.40
2018-09-18T06:13:21.385Z,98488.20
2018-09-18T06:15:50.176Z,98485.27
2018-09-18T06:18:18.892Z,98480.89
2018-09-18T06:20:47.961Z,98479.81
2018-09-18T06:23:17.363Z,98483.23
2018-09-18T06:25:45.605Z,98482.73
2018-09-18T06:28:13.832Z,98488.27
2018-09-18T06:30:42.094Z,98484.06
2018-09-18T06:33:10.400Z,98486.62
2018-09-18T06:35:38.670Z,98486.75
2018-09-18T06:38:07.335Z,98486.86
2018-09-18T06:40:36.252Z,98489.98
2018-09-18T06:43:05.269Z,98494.22
2018-09-18T06:45:34.231Z,98500.14
2018-09-18T06:48:02.829Z,98503.03
2018-09-18T06:50:31.155Z,98506.15
2018-09-18T06:52:59.512Z,98503.39
2018-09-18T06:55:28.090Z,98499.88
2018-09-18T06:57:57.664Z,98501.28
2018-09-18T07:00:26.031Z,98499.50
2018-09-18T07:02:54.523Z,98501.79
2018-09-18T07:05:22.783Z,98492.59
2018-09-18T07:07:52.183Z,98498.53
2018-09-18T07:10:21.517Z,98503.24
2018-09-18T07:12:51.485Z,98498.34
2018-09-18T07:15:22.234Z,98496.55
2018-09-18T07:17:50.551Z,98497.63
2018-09-18T07:20:19.277Z,98495.39
2018-09-18T07:22:48.327Z,98495.13
2018-09-18T07:25:17.606Z,98495.00
2018-09-18T07:27:46.246Z,98495.91
2018-09-18T07:30:14.481Z,98498.08
2018-09-18T07:32:43.535Z,98495.83
2018-09-18T07:35:11.836Z,98494.23
2018-09-18T07:37:40.945Z,98495.99
2018-09-18T07:40:09.304Z,98492.11
2018-09-18T07:42:37.656Z,98492.48
2018-09-18T07:45:06.304Z,98491.70
2018-09-18T07:47:34.624Z,98492.50
2018-09-18T07:50:04.220Z,98488.92
2018-09-18T07:52:33.296Z,98487.26
2018-09-18T07:55:02.321Z,98490.52
2018-09-18T07:57:31.476Z,98491.82
2018-09-18T08:00:00.095Z,98489.30
2018-09-18T08:02:28.664Z,98493.83
2018-09-18T08:04:58.182Z,98489.40
2018-09-18T08:07:26.635Z,98489.05
2018-09-18T08:09:54.974Z,98487.98
2018-09-18T08:12:23.866Z,98486.69
2018-09-18T08:14:52.436Z,98485.78
2018-09-18T08:17:21.076Z,98488.95
2018-09-18T08:19:49.672Z,98488.38
2018-09-18T08:22:18.056Z,98489.86
2018-09-18T08:24:49.520Z,98489.63
2018-09-18T08:27:18.414Z,98486.84
2018-09-18T08:29:49.927Z,98490.83
2018-09-18T08:32:18.721Z,98490.06
2018-09-18T08:34:47.164Z,98492.27
2018-09-18T08:37:15.748Z,98492.08
2018-09-18T08:39:44.071Z,98492.23
2018-09-18T08:42:13.384Z,98490.50
2018-09-18T08:44:43.051Z,98494.63
2018-09-18T08:47:11.340Z,98488.17
2018-09-18T08:49:39.685Z,98492.36
2018-09-18T08:52:08.310Z,98489.68
2018-09-18T08:54:36.985Z,98491.53
2018-09-18T08:59:33.701Z,98490.48
2018-09-18T09:02:02.708Z,98487.31
2018-09-18T09:04:31.747Z,98491.58
2018-09-18T09:07:00.232Z,98493.19
2018-09-18T09:09:29.733Z,98497.88
2018-09-18T09:11:58.928Z,98489.38
2018-09-18T09:14:27.753Z,98493.64
2018-09-18T09:16:56.384Z,98486.97
2018-09-18T09:19:24.622Z,98487.81
2018-09-18T09:21:53.794Z,98485.98
2018-09-18T09:24:22.337Z,98483.86
2018-09-18T09:26:51.239Z,98483.50
2018-09-18T09:29:20.241Z,98479.19
2018-09-18T09:31:49.522Z,98471.61
2018-09-18T09:34:21.848Z,98475.16
2018-09-18T09:36:51.108Z,98475.67
2018-09-18T09:39:19.766Z,98472.62
2018-09-18T09:41:48.850Z,98471.62
2018-09-18T09:44:17.085Z,98468.34
2018-09-18T09:46:45.293Z,98465.34
2018-09-18T09:49:13.520Z,98464.25
2018-09-18T09:51:41.961Z,98464.34
2018-09-18T09:54:10.756Z,98462.23
2018-09-18T09:56:39.218Z,98464.20
2018-09-18T09:59:08.988Z,98461.79
2018-09-18T10:01:42.287Z,98456.22
2018-09-18T10:04:10.656Z,98451.05
2018-09-18T10:06:39.241Z,98452.89
2018-09-18T10:09:10.774Z,98452.37
2018-09-18T10:11:39.187Z,98454.31
2018-09-18T10:14:08.505Z,98448.52
2018-09-18T10:16:36.752Z,98443.20
2018-09-18T10:19:05.168Z,98440.05
2018-09-18T10:21:33.402Z,98445.49
2018-09-18T10:24:02.154Z,98446.97
2018-09-18T10:26:30.690Z,98443.47
2018-09-18T10:28:59.278Z,98437.59
2018-09-18T10:31:27.963Z,98440.52
2018-09-18T10:33:56.850Z,98437.93
2018-09-18T10:36:25.948Z,98436.02
2018-09-18T10:38:54.410Z,98434.20
2018-09-18T10:41:22.884Z,98429.98
2018-09-18T10:43:51.403Z,98430.70
2018-09-18T10:46:20.165Z,98423.62
2018-09-18T10:48:49.580Z,98426.31
2018-09-18T10:51:18.371Z,98422.09
2018-09-18T10:53:46.584Z,98423.09
2018-09-18T10:56:15.087Z,98421.14
2018-09-18T10:58:43.673Z,98418.17
2018-09-18T11:01:12.172Z,98407.97
2018-09-18T11:03:41.500Z,98409.81
2018-09-18T11:06:11.927Z,98410.61
2018-09-18T11:08:43.451Z,98411.83
2018-09-18T11:11:15.090Z,98408.03
2018-09-18T11:13:45.319Z,98404.12
2018-09-18T11:16:16.235Z,98400.66
2018-09-18T11:18:46.511Z,98406.88
2018-09-18T11:21:15.110Z,98401.95
2018-09-18T11:23:43.668Z,98401.00
2018-09-18T11:26:14.354Z,98395.83
2018-09-18T11:28:42.804Z,98402.00
2018-09-18T11:31:11.272Z,98400.22
2018-09-18T11:33:39.865Z,98394.31
2018-09-18T11:36:08.428Z,98393.73
2018-09-18T11:38:38.324Z,98391.41
2018-09-18T11:41:06.787Z,98384.47
2018-09-18T11:43:37.553Z,98387.89
2018-09-18T11:46:06.072Z,98386.53
2018-09-18T11:48:34.098Z,98388.98
2018-09-18T11:51:03.044Z,98387.20
2018-09-18T11:53:31.591Z,98387.25
2018-09-18T11:55:59.852Z,98384.72
2018-09-18T11:58:28.395Z,98386.41
2018-09-18T12:00:56.811Z,98380.20
2018-09-18T12:03:25.038Z,98384.96
2018-09-18T12:05:53.269Z,98379.21
2018-09-18T12:08:21.536Z,98379.59
2018-09-18T12:10:49.840Z,98373.50
2018-09-18T12:13:18.309Z,98374.66
2018-09-18T12:15:47.825Z,98372.42
2018-09-18T12:18:16.313Z,98368.85
2018-09-18T12:20:46.405Z,98360.24
2018-09-18T12:23:14.737Z,98360.59
2018-09-18T12:25:43.574Z,98361.47
2018-09-18T12:28:12.208Z,98363.23
2018-09-18T12:30:40.458Z,98360.05
2018-09-18T12:33:09.206Z,98360.85
2018-09-18T12:35:38.059Z,98360.27
2018-09-18T12:38:11.840Z,98354.55
2018-09-18T12:40:46.474Z,98356.30
2018-09-18T12:43:15.381Z,98352.34
2018-09-18T12:45:44.196Z,98344.05
2018-09-18T12:48:12.647Z,98346.73
2018-09-18T12:50:41.161Z,98344.42
2018-09-18T12:53:09.805Z,98340.50
2018-09-18T12:55:39.793Z,98324.84
2018-09-18T12:58:09.151Z,98333.09
2018-09-18T13:00:37.479Z,98328.38
2018-09-18T13:03:06.495Z,98339.50
2018-09-18T13:05:34.971Z,98331.69
2018-09-18T13:08:07.048Z,98329.91
2018-09-18T13:10:35.873Z,98337.75
2018-09-18T13:13:04.617Z,98328.21
2018-09-18T13:15:33.887Z,98325.95
2018-09-18T13:18:02.165Z,98320.47
2018-09-18T13:20:31.648Z,98315.45
2018-09-18T13:23:00.186Z,98318.41
2018-09-18T13:25:28.941Z,98314.28
2018-09-18T13:27:57.304Z,98309.63
2018-09-18T13:30:25.502Z,98305.14
2018-09-18T13:32:53.718Z,98305.67
2018-09-18T13:35:21.956Z,98312.96
2018-09-18T13:37:50.535Z,98303.08
2018-09-18T13:40:18.908Z,98300.83
2018-09-18T13:42:47.120Z,98292.88
2018-09-18T13:45:15.718Z,98291.80
2018-09-18T13:47:44.972Z,98286.91
2018-09-18T13:50:14.359Z,98294.41
2018-09-18T13:52:42.642Z,98287.75
2018-09-18T13:55:11.219Z,98287.63
2018-09-18T13:57:39.645Z,98290.64
2018-09-18T14:00:08.304Z,98290.87
2018-09-18T14:02:36.545Z,98281.67
2018-09-18T14:05:05.462Z,98281.02
2018-09-18T14:07:33.807Z,98272.80
2018-09-18T14:10:03.518Z,98273.59
2018-09-18T14:12:34.392Z,98271.06
2018-09-18T14:15:02.770Z,98277.97
2018-09-18T14:17:30.975Z,98280.20
2018-09-18T14:19:59.260Z,98271.09
2018-09-18T14:22:27.766Z,98275.27
2018-09-18T14:24:58.065Z,98273.93
2018-09-18T14:27:26.349Z,98272.51
2018-09-18T14:29:54.764Z,98266.45
2018-09-18T14:32:23.340Z,98264.69
2018-09-18T14:34:53.224Z,98265.50
2018-09-18T14:37:21.563Z,98264.34
2018-09-18T14:39:49.879Z,98262.91
2018-09-18T14:42:18.811Z,98259.03
2018-09-18T14:44:47.156Z,98254.58
2018-09-18T14:47:15.436Z,98256.44
2018-09-18T14:49:43.981Z,98254.09
2018-09-18T14:52:13.112Z,98254.23
2018-09-18T14:54:42.723Z,98264.22
2018-09-18T14:57:11.399Z,98257.25
2018-09-18T14:59:40.141Z,98266.04
2018-09-18T15:02:08.678Z,98269.11
2018-09-18T15:04:37.650Z,98263.15
2018-09-18T15:07:06.067Z,98260.31
2018-09-18T15:09:35.133Z,98264.03
2018-09-18T15:12:04.003Z,98273.30
2018-09-18T15:14:32.965Z,98268.23
2018-09-18T15:17:01.593Z,98266.66
2018-09-18T15:19:30.509Z,98264.08
2018-09-18T15:21:59.221Z,98267.55
2018-09-18T15:24:27.508Z,98269.16
2018-09-18T15:26:56.012Z,98278.02
2018-09-18T15:29:24.513Z,98275.80
2018-09-18T15:31:53.565Z,98282.05
2018-09-18T15:34:22.113Z,98289.06
2018-09-18T15:36:52.157Z,98285.97
2018-09-18T15:39:20.409Z,98281.40
2018-09-18T15:41:48.579Z,98285.95
2018-09-18T15:44:17.670Z,98291.50
2018-09-18T15:46:46.877Z,98297.48
2018-09-18T15:49:15.800Z,98304.00
2018-09-18T15:51:44.528Z,98302.52
2018-09-18T15:54:13.049Z,98301.09
2018-09-18T15:56:42.337Z,98308.05
2018-09-18T15:59:10.697Z,98310.19
2018-09-18T16:01:39.232Z,98312.46
2018-09-18T16:04:07.878Z,98317.19
2018-09-18T16:06:36.144Z,98310.95
2018-09-18T16:09:09.314Z,98311.25
2018-09-18T16:11:38.225Z,98311.73
2018-09-18T16:14:07.351Z,98315.41
2018-09-18T16:16:36.968Z,98316.09
2018-09-18T16:19:05.958Z,98317.19
2018-09-18T16:21:34.587Z,98317.69
2018-09-18T16:24:03.785Z,98314.01
2018-09-18T16:26:32.164Z,98320.55
2018-09-18T16:29:01.567Z,98316.14
2018-09-18T16:31:31.045Z,98316.21
2018-09-18T16:34:00.540Z,98318.55
2018-09-18T16:36:29.286Z,98324.45
2018-09-18T16:38:58.765Z,98327.00
2018-09-18T16:41:27.118Z,98333.55
2018-09-18T16:43:56.419Z,98344.95
2018-09-18T16:46:25.261Z,98350.86
2018-09-18T16:48:54.344Z,98351.00
2018-09-18T16:51:22.884Z,98338.60
2018-09-18T16:53:51.364Z,98332.63
2018-09-18T16:56:19.995Z,98334.84
2018-09-18T16:58:48.396Z,98332.75
2018-09-18T17:01:17.069Z,98334.68
2018-09-18T17:03:45.430Z,98336.62
2018-09-18T17:06:13.734Z,98337.91
2018-09-18T17:08:42.241Z,98333.58
2018-09-18T17:11:10.880Z,98330.23
2018-09-18T17:13:39.738Z,98332.23
2018-09-18T17:16:08.270Z,98324.53
2018-09-18T17:18:36.590Z,98318.13
2018-09-18T17:21:04.791Z,98323.26
2018-09-18T17:23:33.412Z,98313.95
2018-09-18T17:26:01.762Z,98322.08
2018-09-18T17:28:30.240Z,98332.02
2018-09-18T17:30:58.654Z,98323.81
2018-09-18T17:33:27.669Z,98325.54
2018-09-18T17:35:56.221Z,98333.48
2018-09-18T17:38:24.444Z,98339.97
2018-09-18T17:40:53.373Z,98346.82
2018-09-18T17:43:21.949Z,98353.52
2018-09-18T17:45:50.253Z,98366.01
2018-09-18T17:48:19.233Z,98365.20
2018-09-18T17:50:48.349Z,98370.37
2018-09-18T17:53:16.579Z,98358.52
2018-09-18T17:55:44.805Z,98365.80
2018-09-18T17:58:13.053Z,98375.83
2018-09-18T18:00:41.439Z,98384.56
2018-09-18T18:03:10.276Z,98381.91
2018-09-18T18:05:38.768Z,98392.53
2018-09-18T18:08:07.330Z,98395.61
2018-09-18T18:10:35.633Z,98394.75
2018-09-18T18:13:03.882Z,98394.53
2018-09-18T18:15:32.770Z,98402.80
2018-09-18T18:18:01.053Z,98418.46
2018-09-18T18:20:30.038Z,98424.33
2018-09-18T18:22:58.426Z,98432.77
2018-09-18T18:25:26.688Z,98446.31
2018-09-18T18:27:55.361Z,98460.55
2018-09-18T18:30:23.809Z,98470.22
2018-09-18T18:32:52.384Z,98461.93
2018-09-18T18:35:20.881Z,98458.20
2018-09-18T18:37:50.327Z,98460.30
2018-09-18T18:40:19.380Z,98473.84
2018-09-18T18:42:47.641Z,98473.80
2018-09-18T18:45:16.138Z,98475.29
2018-09-18T18:47:45.287Z,98471.31
2018-09-18T18:50:13.737Z,98470.54
2018-09-18T18:52:42.348Z,98478.39
2018-09-18T18:55:11.605Z,98481.58
2018-09-18T18:57:40.679Z,98487.41
2018-09-18T19:00:09.018Z,98487.47
2018-09-18T19:02:37.848Z,98490.19
2018-09-18T19:05:06.288Z,98486.25
2018-09-18T19:07:35.205Z,98483.06
2018-09-18T19:10:04.242Z,98488.28
2018-09-18T19:12:33.248Z,98497.36
2018-09-18T19:15:01.588Z,98499.13
2018-09-18T19:17:29.862Z,98503.26
2018-09-18T19:19:59.502Z,98501.39
2018-09-18T19:22:28.739Z,98499.03
2018-09-18T19:24:58.032Z,98487.76
2018-09-18T19:27:26.298Z,98494.53
2018-09-18T19:29:55.400Z,98481.73
2018-09-18T19:32:23.667Z,98483.79
2018-09-18T19:34:52.824Z,98476.27
2018-09-18T19:37:21.430Z,98471.11
2018-09-18T19:39:49.947Z,98462.81
2018-09-18T19:42:18.252Z,98463.47
2018-09-18T19:44:47.165Z,98474.45
2018-09-18T19:47:16.434Z,98475.34
2018-09-18T19:49:44.774Z,98479.20
2018-09-18T19:52:13.454Z,98480.48
2018-09-18T19:54:42.334Z,98480.44
2018-09-18T19:57:11.024Z,98485.13
2018-09-18T19:59:39.320Z,98491.94
2018-09-18T20:02:08.759Z,98492.47
2018-09-18T20:04:37.141Z,98492.86
2018-09-18T20:07:05.569Z,98488.83
2018-09-18T20:09:33.811Z,98485.44
2018-09-18T20:12:02.106Z,98493.06
2018-09-18T20:14:31.192Z,98503.85
2018-09-18T20:16:59.812Z,98509.14
2018-09-18T20:19:28.227Z,98506.97
2018-09-18T20:21:56.765Z,98512.42
2018-09-18T20:24:25.014Z,98514.66
2018-09-18T20:26:53.312Z,98517.75
2018-09-18T20:29:21.916Z,98526.80
2018-09-18T20:31:50.542Z,98533.28
2018-09-18T20:34:18.844Z,98526.08
2018-09-18T20:36:47.166Z,98528.91
2018-09-18T20:39:15.393Z,98530.77
2018-09-18T20:41:43.721Z,98534.45
2018-09-18T20:44:12.276Z,98533.69
2018-09-18T20:46:40.822Z,98539.78
2018-09-18T20:49:09.200Z,98546.35
2018-09-18T20:51:37.984Z,98552.02
2018-09-18T20:54:06.220Z,98558.71
2018-09-18T20:56:34.808Z,98562.08
2018-09-18T20:59:03.173Z,98564.97
2018-09-18T21:01:31.819Z,98568.81
2018-09-18T21:04:00.195Z,98572.83
2018-09-18T21:06:28.425Z,98576.29
2018-09-18T21:08:57.023Z,98579.19
2018-09-18T21:11:25.354Z,98577.93
2018-09-18T21:13:53.677Z,98573.64
2018-09-18T21:16:23.764Z,98575.68
2018-09-18T21:18:52.312Z,98571.75
2018-09-18T21:21:20.869Z,98567.23
2018-09-18T21:23:49.134Z,98567.00
2018-09-18T21:26:18.521Z,98564.39
2018-09-18T21:28:48.901Z,98572.00
2018-09-18T21:31:18.236Z,98563.83
2018-09-18T21:33:46.777Z,98561.67
2018-09-18T21:36:15.380Z,98564.48
2018-09-18T21:38:45.049Z,98563.31
2018-09-18T21:41:15.429Z,98558.72
2018-09-18T21:43:43.786Z,98563.70
2018-09-18T21:46:12.656Z,98561.09
2018-09-18T21:48:45.065Z,98568.30
2018-09-18T21:51:13.364Z,98569.47
2018-09-18T21:53:43.378Z,98570.44
2018-09-18T21:56:13.435Z,98570.59
2018-09-18T21:58:42.065Z,98569.42
2018-09-18T22:01:13.552Z,98568.64
2018-09-18T22:03:42.359Z,98569.98
2018-09-18T22:06:10.833Z,98571.62
2018-09-18T22:08:44.830Z,98562.80
2018-09-18T22:11:13.090Z,98557.92
2018-09-18T22:13:41.464Z,98562.12
2018-09-18T22:16:09.730Z,98565.96
2018-09-18T22:18:38.572Z,98559.23
2018-09-18T22:21:06.982Z,98564.00
2018-09-18T22:23:35.686Z,98574.05
2018-09-18T22:26:04.582Z,98567.51
2018-09-18T22:28:35.459Z,98576.67
2018-09-18T22:31:05.760Z,98574.05
2018-09-18T22:33:34.084Z,98574.39
2018-09-18T22:36:03.059Z,98568.18
2018-09-18T22:38:33.039Z,98575.07
2018-09-18T22:41:01.574Z,98574.25
2018-09-18T22:43:30.052Z,98567.03
2018-09-18T22:45:59.202Z,98574.72
2018-09-18T22:48:28.882Z,98574.41
2018-09-18T22:50:57.163Z,98580.66
2018-09-18T22:53:26.194Z,98582.64
2018-09-18T22:55:54.768Z,98582.31
2018-09-18T22:58:23.098Z,98581.16
2018-09-18T23:00:51.748Z,98582.01
2018-09-18T23:03:20.421Z,98579.05
2018-09-18T23:05:48.692Z,98582.00
2018-09-18T23:08:17.756Z,98582.03
2018-09-18T23:10:46.066Z,98580.89
2018-09-18T23:13:15.021Z,98586.59
2018-09-18T23:15:43.526Z,98587.73
2018-09-18T23:18:11.775Z,98590.52
2018-09-18T23:20:40.325Z,98590.17
2018-09-18T23:23:09.659Z,98592.95
2018-09-18T23:25:37.995Z,98600.08
2018-09-18T23:28:06.356Z,98603.33
2018-09-18T23:30:34.969Z,98603.31
2018-09-18T23:33:03.167Z,98603.61
2018-09-18T23:35:31.902Z,98609.16
2018-09-18T23:38:00.130Z,98601.76
2018-09-18T23:40:29.307Z,98603.83
2018-09-18T23:42:58.060Z,98613.16
2018-09-18T23:45:26.663Z,98608.27
2018-09-18T23:47:54.876Z,98606.31
2018-09-18T23:50:23.429Z,98608.59
2018-09-18T23:52:53.000Z,98603.50
2018-09-18T23:55:21.513Z,98605.09
2018-09-18T23:57:49.753Z,98614.52
